Time;durP1;ratioP1;P1;durP2;ratioP2;P2;SDS_P1;SDS_P2;PMS_P1;PMS_P2;Temp;Humidity;BMP_temperature;BMP_pressure;BME280_temperature;BME280_humidity;BME280_pressure;Samples;Min_cycle;Max_cycle;Signal;HPM_P1;HPM_P2
2022/06/08 00:01:39;;;;;;;4.80;2.13;;;;;;;;;;5094412;28;20051;-69
2022/06/08 00:04:05;;;;;;;2.83;1.88;;;;;;;;;;5094945;28;20032;-70
2022/06/08 00:06:32;;;;;;;4.28;2.15;;;;;;;;;;5094409;28;20083;-70
2022/06/08 00:08:58;;;;;;;3.63;1.75;;;;;;;;;;5094835;28;20040;-70
2022/06/08 00:11:24;;;;;;;6.15;1.95;;;;;;;;;;5094375;28;20046;-70
2022/06/08 00:13:50;;;;;;;3.30;2.08;;;;;;;;;;5094604;28;20063;-70
2022/06/08 00:16:17;;;;;;;5.72;2.20;;;;;;;;;;5095181;28;20482;-70
2022/06/08 00:18:44;;;;;;;3.05;2.00;;;;;;;;;;5094304;28;20067;-69
2022/06/08 00:21:11;;;;;;;10.23;2.67;;;;;;;;;;5094241;28;20071;-70
2022/06/08 00:23:37;;;;;;;4.43;2.30;;;;;;;;;;5094534;28;20490;-70
2022/06/08 00:26:03;;;;;;;4.18;2.38;;;;;;;;;;5094667;28;20048;-70
2022/06/08 00:28:31;;;;;;;5.10;2.10;;;;;;;;;;5094644;28;20040;-69
2022/06/08 00:30:57;;;;;;;5.60;2.00;;;;;;;;;;5094085;28;20040;-70
2022/06/08 00:33:23;;;;;;;5.47;2.13;;;;;;;;;;5094133;28;20162;-69
2022/06/08 00:35:49;;;;;;;7.60;2.35;;;;;;;;;;5093818;28;20051;-70
2022/06/08 00:38:15;;;;;;;3.50;2.00;;;;;;;;;;5094391;28;20036;-69
2022/06/08 00:40:52;;;;;;;5.70;2.28;;;;;;;;;;5094703;28;20040;-70
2022/06/08 00:43:19;;;;;;;3.92;2.35;;;;;;;;;;5094652;28;20036;-69
2022/06/08 00:45:46;;;;;;;4.30;2.10;;;;;;;;;;5094644;28;20056;-70
2022/06/08 00:48:12;;;;;;;7.78;2.53;;;;;;;;;;5094857;28;20067;-69
2022/06/08 00:50:41;;;;;;;4.05;2.00;;;;;;;;;;5094115;28;20114;-69
2022/06/08 00:53:08;;;;;;;3.95;2.15;;;;;;;;;;5094229;28;20402;-69
2022/06/08 00:55:37;;;;;;;5.55;1.80;;;;;;;;;;5094961;28;20494;-69
2022/06/08 00:58:05;;;;;;;3.40;2.08;;;;;;;;;;5094731;28;20036;-69
2022/06/08 01:00:39;;;;;;;5.80;2.08;;;;;;;;;;5094125;28;20047;-69
2022/06/08 01:03:06;;;;;;;5.03;2.10;;;;;;;;;;5097535;28;20487;-69
2022/06/08 01:06:10;;;;;;;4.60;2.10;;;;;;;;;;5098001;28;20044;-69
2022/06/08 01:08:44;;;;;;;5.57;2.28;;;;;;;;;;5035270;28;20412;-70
2022/06/08 01:11:14;;;;;;;4.05;2.20;;;;;;;;;;5035329;28;20047;-70
2022/06/08 01:13:42;;;;;;;4.82;2.10;;;;;;;;;;5069495;28;20123;-70
2022/06/08 01:16:10;;;;;;;5.03;2.20;;;;;;;;;;5095116;28;20047;-69
2022/06/08 01:18:36;;;;;;;6.13;2.63;;;;;;;;;;5096664;28;20043;-70
2022/06/08 01:21:20;;;;;;;3.30;1.90;;;;;;;;;;5096855;28;20066;-70
2022/06/08 01:23:51;;;;;;;3.63;2.20;;;;;;;;;;5096654;28;20119;-70
2022/06/08 01:26:23;;;;;;;2.63;1.90;;;;;;;;;;5097678;28;20076;-70
2022/06/08 01:28:57;;;;;;;6.15;2.33;;;;;;;;;;5097719;28;20074;-70
2022/06/08 01:31:38;;;;;;;4.85;2.55;;;;;;;;;;5097998;28;20119;-70
2022/06/08 01:34:12;;;;;;;5.85;2.28;;;;;;;;;;5097777;28;20040;-70
2022/06/08 01:36:44;;;;;;;3.67;1.90;;;;;;;;;;5096888;28;20075;-70
2022/06/08 01:39:13;;;;;;;4.45;2.53;;;;;;;;;;5098187;28;20048;-70
2022/06/08 01:41:58;;;;;;;8.00;2.33;;;;;;;;;;5097436;28;20032;-70
2022/06/08 01:44:24;;;;;;;3.90;1.92;;;;;;;;;;5097741;28;20523;-70
2022/06/08 01:47:03;;;;;;;5.60;2.22;;;;;;;;;;5097049;28;20044;-70
2022/06/08 01:49:52;;;;;;;4.30;2.47;;;;;;;;;;5096930;28;20067;-70
2022/06/08 01:52:28;;;;;;;6.25;2.08;;;;;;;;;;5097078;28;20074;-70
2022/06/08 01:54:57;;;;;;;3.80;2.72;;;;;;;;;;5097596;28;20044;-70
2022/06/08 01:57:41;;;;;;;5.82;2.13;;;;;;;;;;5096643;28;20525;-70
2022/06/08 02:00:09;;;;;;;4.88;1.95;;;;;;;;;;5096582;28;20062;-69
2022/06/08 02:02:42;;;;;;;6.28;2.47;;;;;;;;;;5096869;28;20051;-70
2022/06/08 02:05:14;;;;;;;4.18;2.47;;;;;;;;;;5096756;28;20398;-70
2022/06/08 02:07:52;;;;;;;4.07;2.30;;;;;;;;;;5096981;28;20036;-70
2022/06/08 02:10:18;;;;;;;6.22;2.53;;;;;;;;;;5096661;28;20044;-70
2022/06/08 02:12:47;;;;;;;4.63;2.10;;;;;;;;;;5096621;28;20051;-70
2022/06/08 02:15:17;;;;;;;6.90;2.20;;;;;;;;;;5096669;28;20048;-70
2022/06/08 02:17:53;;;;;;;5.60;2.20;;;;;;;;;;5096574;28;20085;-70
2022/06/08 02:20:20;;;;;;;5.72;2.30;;;;;;;;;;5096450;28;20044;-70
2022/06/08 02:22:48;;;;;;;7.25;2.13;;;;;;;;;;5096442;28;20036;-70
2022/06/08 02:25:27;;;;;;;6.18;2.50;;;;;;;;;;5097102;28;20048;-70
2022/06/08 02:28:22;;;;;;;5.63;2.28;;;;;;;;;;5096286;28;20514;-70
2022/06/08 02:31:04;;;;;;;3.15;2.15;;;;;;;;;;5086917;28;20083;-70
2022/06/08 02:36:29;;;;;;;6.10;2.47;;;;;;;;;;5095494;28;20035;-70
2022/06/08 02:38:58;;;;;;;4.72;2.42;;;;;;;;;;5096406;28;20048;-70
2022/06/08 02:41:25;;;;;;;4.63;2.20;;;;;;;;;;5096304;28;20055;-70
2022/06/08 02:43:58;;;;;;;5.13;2.20;;;;;;;;;;5095947;28;20043;-70
2022/06/08 02:46:40;;;;;;;4.00;2.10;;;;;;;;;;5095795;28;20087;-70
2022/06/08 02:49:07;;;;;;;6.95;2.25;;;;;;;;;;5096153;28;20039;-70
2022/06/08 02:51:33;;;;;;;3.78;2.35;;;;;;;;;;5095664;28;20478;-70
2022/06/08 02:54:04;;;;;;;5.90;2.30;;;;;;;;;;5096129;28;20047;-69
2022/06/08 02:56:30;;;;;;;5.28;2.50;;;;;;;;;;5095955;28;20040;-70
2022/06/08 02:59:03;;;;;;;2.85;2.28;;;;;;;;;;5095911;28;20571;-70
2022/06/08 03:01:34;;;;;;;2.70;1.92;;;;;;;;;;5095699;28;20044;-70
2022/06/08 03:04:05;;;;;;;4.75;2.78;;;;;;;;;;5095948;28;20036;-70
2022/06/08 03:06:36;;;;;;;5.22;2.08;;;;;;;;;;5095935;28;20097;-70
2022/06/08 03:09:04;;;;;;;8.40;2.42;;;;;;;;;;5096348;28;20494;-70
2022/06/08 03:11:53;;;;;;;3.03;2.13;;;;;;;;;;5095511;28;20093;-70
2022/06/08 03:14:20;;;;;;;7.03;2.35;;;;;;;;;;5090045;28;20062;-70
2022/06/08 03:16:52;;;;;;;5.88;2.28;;;;;;;;;;5095729;28;20646;-70
2022/06/08 03:19:19;;;;;;;3.70;2.00;;;;;;;;;;5095704;28;20040;-70
2022/06/08 03:21:45;;;;;;;5.72;2.30;;;;;;;;;;5094782;28;20046;-70
2022/06/08 03:24:11;;;;;;;3.78;2.22;;;;;;;;;;5095286;28;20058;-70
2022/06/08 03:26:44;;;;;;;4.60;2.33;;;;;;;;;;5094296;28;20065;-70
2022/06/08 03:29:11;;;;;;;2.67;2.08;;;;;;;;;;5095755;28;20051;-70
2022/06/08 03:31:37;;;;;;;3.50;1.98;;;;;;;;;;5095139;28;20067;-70
2022/06/08 03:34:03;;;;;;;4.00;1.80;;;;;;;;;;5094844;28;20492;-70
2022/06/08 03:36:29;;;;;;;2.85;1.90;;;;;;;;;;5094947;28;20081;-70
2022/06/08 03:38:55;;;;;;;4.90;2.30;;;;;;;;;;5095081;28;20052;-70
2022/06/08 03:41:21;;;;;;;4.78;2.38;;;;;;;;;;5095024;28;20035;-70
2022/06/08 03:43:47;;;;;;;2.75;2.13;;;;;;;;;;5094679;28;20044;-70
2022/06/08 03:46:14;;;;;;;5.07;2.30;;;;;;;;;;5094730;28;20062;-70
2022/06/08 03:48:40;;;;;;;4.10;2.22;;;;;;;;;;5095130;28;20156;-70
2022/06/08 03:51:07;;;;;;;4.10;2.20;;;;;;;;;;5094971;28;20051;-70
2022/06/08 03:53:41;;;;;;;6.55;2.13;;;;;;;;;;5095409;28;20066;-70
2022/06/08 03:56:07;;;;;;;4.35;2.00;;;;;;;;;;5095322;28;20059;-70
2022/06/08 03:58:34;;;;;;;5.40;2.50;;;;;;;;;;5095090;28;20502;-70
2022/06/08 04:01:00;;;;;;;3.85;2.30;;;;;;;;;;5094773;28;20105;-70
2022/06/08 04:03:26;;;;;;;4.50;2.50;;;;;;;;;;5094750;28;20047;-69
2022/06/08 04:05:53;;;;;;;4.10;2.53;;;;;;;;;;5093313;28;21354;-70
2022/06/08 04:08:19;;;;;;;2.72;1.90;;;;;;;;;;5093951;28;20040;-70
2022/06/08 04:10:45;;;;;;;4.72;2.05;;;;;;;;;;5093652;28;20574;-69
2022/06/08 04:13:11;;;;;;;5.10;2.55;;;;;;;;;;5094742;28;20036;-70
2022/06/08 04:15:43;;;;;;;4.93;2.53;;;;;;;;;;5093883;28;20044;-70
2022/06/08 04:18:17;;;;;;;4.85;2.33;;;;;;;;;;5094222;28;20040;-70
2022/06/08 04:20:44;;;;;;;3.42;2.10;;;;;;;;;;5094077;28;20044;-68
2022/06/08 04:23:10;;;;;;;4.70;2.22;;;;;;;;;;5100955;28;20080;-69
2022/06/08 04:25:37;;;;;;;3.28;2.28;;;;;;;;;;5092031;28;20130;-69
2022/06/08 04:28:04;;;;;;;4.20;2.25;;;;;;;;;;5094313;28;20516;-68
2022/06/08 04:30:31;;;;;;;4.32;2.28;;;;;;;;;;5094490;28;20075;-69
2022/06/08 04:32:57;;;;;;;3.90;2.30;;;;;;;;;;5092803;28;20032;-68
2022/06/08 04:35:25;;;;;;;5.55;2.72;;;;;;;;;;5093421;28;20048;-68
2022/06/08 04:37:51;;;;;;;3.60;2.10;;;;;;;;;;5096836;28;20138;-71
2022/06/08 04:40:18;;;;;;;3.30;1.92;;;;;;;;;;5098048;28;20036;-68
2022/06/08 04:42:44;;;;;;;6.15;2.40;;;;;;;;;;5098636;28;20070;-68
2022/06/08 04:45:11;;;;;;;3.38;2.30;;;;;;;;;;5098856;28;20036;-68
2022/06/08 04:47:37;;;;;;;7.07;2.75;;;;;;;;;;5097648;28;20116;-68
2022/06/08 04:50:04;;;;;;;4.82;2.38;;;;;;;;;;5097808;28;20048;-68
2022/06/08 04:52:30;;;;;;;7.07;2.90;;;;;;;;;;5098690;28;20028;-68
2022/06/08 04:54:56;;;;;;;5.95;2.90;;;;;;;;;;5098164;28;20048;-68
2022/06/08 04:57:22;;;;;;;4.75;2.53;;;;;;;;;;5098644;28;20085;-68
2022/06/08 04:59:49;;;;;;;6.75;2.53;;;;;;;;;;5098404;28;20036;-68
2022/06/08 05:02:42;;;;;;;4.78;2.42;;;;;;;;;;5098022;28;20039;-68
2022/06/08 05:05:01;;;;;;;4.78;2.50;;;;;;;;;;5097540;28;20490;-68
2022/06/08 05:07:27;;;;;;;9.48;2.33;;;;;;;;;;5097603;28;20201;-68
2022/06/08 05:09:53;;;;;;;4.25;1.90;;;;;;;;;;5097756;28;20568;-68
2022/06/08 05:12:20;;;;;;;3.22;2.33;;;;;;;;;;5097537;28;20036;-68
2022/06/08 05:14:46;;;;;;;4.97;2.50;;;;;;;;;;5097438;28;20122;-68
2022/06/08 05:17:12;;;;;;;4.28;2.40;;;;;;;;;;5097696;28;20036;-68
2022/06/08 05:19:38;;;;;;;3.10;2.22;;;;;;;;;;5098076;28;20051;-68
2022/06/08 05:22:04;;;;;;;4.60;2.70;;;;;;;;;;5097591;28;20134;-68
2022/06/08 05:24:30;;;;;;;6.05;2.70;;;;;;;;;;5097040;28;20399;-68
2022/06/08 05:26:57;;;;;;;5.80;2.58;;;;;;;;;;5097414;28;20132;-68
2022/06/08 05:29:23;;;;;;;3.78;2.38;;;;;;;;;;5097429;28;20139;-68
2022/06/08 05:31:49;;;;;;;6.65;2.30;;;;;;;;;;5097141;28;20123;-68
2022/06/08 05:34:15;;;;;;;4.75;2.83;;;;;;;;;;5097391;28;20120;-68
2022/06/08 05:36:42;;;;;;;5.85;2.50;;;;;;;;;;5097119;28;20032;-68
2022/06/08 05:39:08;;;;;;;3.63;2.03;;;;;;;;;;5097195;28;20040;-68
2022/06/08 05:41:34;;;;;;;2.85;2.10;;;;;;;;;;5097322;28;20040;-68
2022/06/08 05:44:00;;;;;;;5.00;2.08;;;;;;;;;;5097211;28;20043;-68
2022/06/08 05:46:27;;;;;;;2.75;1.80;;;;;;;;;;5096763;28;20067;-68
2022/06/08 05:48:53;;;;;;;2.90;1.75;;;;;;;;;;5096048;28;20044;-68
2022/06/08 05:51:19;;;;;;;4.93;2.05;;;;;;;;;;5096716;28;20093;-68
2022/06/08 05:53:45;;;;;;;6.03;2.58;;;;;;;;;;5097078;28;20131;-68
2022/06/08 05:56:11;;;;;;;4.20;2.15;;;;;;;;;;5097007;28;20036;-68
2022/06/08 05:58:37;;;;;;;4.10;2.03;;;;;;;;;;5096665;28;20506;-68
2022/06/08 06:01:03;;;;;;;3.90;1.90;;;;;;;;;;5096734;28;20078;-68
2022/06/08 06:03:30;;;;;;;3.50;2.17;;;;;;;;;;5096870;28;20055;-68
2022/06/08 06:05:57;;;;;;;3.55;2.10;;;;;;;;;;5096655;28;20039;-68
2022/06/08 06:08:23;;;;;;;4.10;2.30;;;;;;;;;;5096619;28;20198;-68
2022/06/08 06:10:49;;;;;;;3.90;2.00;;;;;;;;;;5096695;28;20127;-68
2022/06/08 06:13:17;;;;;;;7.50;2.50;;;;;;;;;;5096640;28;20035;-68
2022/06/08 06:15:44;;;;;;;3.72;2.30;;;;;;;;;;5096233;28;20117;-68
2022/06/08 06:18:10;;;;;;;4.25;2.00;;;;;;;;;;5096298;28;20127;-68
2022/06/08 06:20:36;;;;;;;4.45;1.92;;;;;;;;;;5096300;28;20047;-68
2022/06/08 06:23:03;;;;;;;4.15;1.85;;;;;;;;;;5096149;28;20040;-68
2022/06/08 06:25:29;;;;;;;4.47;1.95;;;;;;;;;;5096309;28;20425;-68
2022/06/08 06:27:55;;;;;;;3.22;1.80;;;;;;;;;;5095970;28;20375;-68
2022/06/08 06:30:21;;;;;;;4.85;1.77;;;;;;;;;;5096508;28;20071;-69
2022/06/08 06:32:48;;;;;;;2.30;1.67;;;;;;;;;;5095962;28;20044;-68
2022/06/08 06:35:29;;;;;;;7.10;2.00;;;;;;;;;;5096643;28;20043;-68
2022/06/08 06:37:55;;;;;;;5.68;2.30;;;;;;;;;;5095907;28;20048;-69
2022/06/08 06:40:22;;;;;;;3.97;1.80;;;;;;;;;;5095977;28;20036;-69
2022/06/08 06:42:49;;;;;;;3.90;1.65;;;;;;;;;;5094479;28;20412;-69
2022/06/08 06:45:15;;;;;;;3.13;1.60;;;;;;;;;;5094491;28;20140;-69
2022/06/08 06:47:42;;;;;;;7.25;1.75;;;;;;;;;;5094837;28;20048;-69
2022/06/08 06:50:09;;;;;;;3.33;1.35;;;;;;;;;;5094938;28;20506;-70
2022/06/08 06:52:35;;;;;;;4.40;1.73;;;;;;;;;;5095452;28;20039;-70
2022/06/08 06:55:01;;;;;;;4.10;1.48;;;;;;;;;;5094741;28;20545;-71
2022/06/08 06:57:27;;;;;;;3.30;1.65;;;;;;;;;;5096336;28;20046;-71
2022/06/08 06:59:53;;;;;;;3.40;1.77;;;;;;;;;;5116211;28;20356;-71
2022/06/08 07:02:21;;;;;;;2.50;1.73;;;;;;;;;;5107399;28;20097;-71
2022/06/08 07:04:47;;;;;;;6.60;2.03;;;;;;;;;;5095086;28;20043;-71
2022/06/08 07:07:14;;;;;;;4.90;1.73;;;;;;;;;;5095604;28;20043;-71
2022/06/08 07:09:40;;;;;;;4.22;1.67;;;;;;;;;;5095772;28;20044;-71
2022/06/08 07:12:07;;;;;;;2.80;1.20;;;;;;;;;;5095512;28;20161;-71
2022/06/08 07:14:34;;;;;;;4.20;1.67;;;;;;;;;;5099719;28;20497;-71
2022/06/08 07:17:00;;;;;;;5.20;1.40;;;;;;;;;;5095158;28;20063;-71
2022/06/08 07:19:26;;;;;;;3.15;1.30;;;;;;;;;;5095380;28;20102;-71
2022/06/08 07:21:52;;;;;;;3.58;1.40;;;;;;;;;;5095184;28;20517;-71
2022/06/08 07:24:25;;;;;;;2.47;1.58;;;;;;;;;;5093895;28;20036;-68
2022/06/08 07:26:51;;;;;;;5.30;1.50;;;;;;;;;;5094818;28;20380;-68
2022/06/08 07:29:18;;;;;;;4.32;1.50;;;;;;;;;;5094899;28;20082;-68
2022/06/08 07:31:44;;;;;;;5.20;1.20;;;;;;;;;;5094887;28;20048;-68
2022/06/08 07:34:11;;;;;;;3.90;1.20;;;;;;;;;;5094665;28;20036;-68
2022/06/08 07:36:38;;;;;;;5.45;1.40;;;;;;;;;;5094707;28;20047;-68
2022/06/08 07:39:04;;;;;;;3.85;1.60;;;;;;;;;;5095134;28;20047;-68
2022/06/08 07:41:30;;;;;;;3.03;1.50;;;;;;;;;;5095045;28;20048;-67
2022/06/08 07:43:57;;;;;;;3.60;1.50;;;;;;;;;;5094695;28;20482;-67
2022/06/08 07:46:23;;;;;;;2.30;1.38;;;;;;;;;;5094011;28;20059;-68
2022/06/08 07:51:34;;;;;;;5.97;1.70;;;;;;;;;;5094290;28;20403;-69
2022/06/08 07:54:01;;;;;;;4.35;1.60;;;;;;;;;;5094810;28;20047;-69
2022/06/08 07:56:27;;;;;;;5.22;1.50;;;;;;;;;;5093815;28;20075;-69
2022/06/08 07:58:53;;;;;;;5.15;1.50;;;;;;;;;;5094395;28;20047;-68
2022/06/08 08:01:19;;;;;;;2.08;1.50;;;;;;;;;;5094308;28;20040;-69
2022/06/08 08:03:46;;;;;;;5.15;1.80;;;;;;;;;;5094614;28;20124;-69
2022/06/08 08:06:12;;;;;;;3.88;1.60;;;;;;;;;;5095058;28;20044;-69
2022/06/08 08:08:38;;;;;;;4.72;1.70;;;;;;;;;;5093547;28;20185;-69
2022/06/08 08:11:05;;;;;;;4.10;1.98;;;;;;;;;;5094366;28;20134;-70
2022/06/08 08:13:31;;;;;;;3.55;1.40;;;;;;;;;;5094510;28;20118;-70
2022/06/08 08:15:57;;;;;;;2.55;1.45;;;;;;;;;;5094332;28;20051;-70
2022/06/08 08:18:23;;;;;;;3.85;1.60;;;;;;;;;;5094600;28;20044;-70
2022/06/08 08:20:49;;;;;;;4.82;2.13;;;;;;;;;;5094664;28;20040;-70
2022/06/08 08:23:16;;;;;;;3.88;2.00;;;;;;;;;;5093647;28;20046;-70
2022/06/08 08:25:42;;;;;;;3.75;1.67;;;;;;;;;;5093719;28;20054;-70
2022/06/08 08:28:08;;;;;;;3.03;1.83;;;;;;;;;;5093777;28;20055;-69
2022/06/08 08:30:35;;;;;;;3.58;1.98;;;;;;;;;;5093537;28;20043;-69
2022/06/08 08:33:01;;;;;;;6.60;2.20;;;;;;;;;;5095294;28;20036;-69
2022/06/08 08:35:28;;;;;;;6.18;1.70;;;;;;;;;;5094474;28;20044;-69
2022/06/08 08:37:54;;;;;;;3.90;2.10;;;;;;;;;;5093537;28;20074;-69
2022/06/08 08:40:39;;;;;;;4.55;2.10;;;;;;;;;;5094414;28;20082;-69
2022/06/08 08:43:08;;;;;;;5.28;1.92;;;;;;;;;;5094338;28;20044;-69
2022/06/08 08:45:41;;;;;;;5.50;1.88;;;;;;;;;;5094517;28;20036;-69
2022/06/08 08:48:09;;;;;;;8.13;2.17;;;;;;;;;;5094180;28;20040;-69
2022/06/08 08:50:40;;;;;;;3.75;2.20;;;;;;;;;;5094295;28;20043;-69
2022/06/08 08:53:07;;;;;;;;;;;;;;;;;;5095059;28;20067;-69
2022/06/08 08:55:39;;;;;;;3.63;2.25;;;;;;;;;;5094636;28;19910;-69
2022/06/08 08:58:08;;;;;;;4.80;1.90;;;;;;;;;;5094809;28;20047;-73
2022/06/08 09:00:39;;;;;;;6.63;2.17;;;;;;;;;;5093867;28;20082;-69
2022/06/08 09:03:16;;;;;;;3.92;2.00;;;;;;;;;;5095078;28;20055;-69
2022/06/08 09:05:43;;;;;;;5.18;2.13;;;;;;;;;;5094585;28;20047;-69
2022/06/08 09:08:15;;;;;;;6.45;1.92;;;;;;;;;;5094322;28;20040;-69
2022/06/08 09:10:42;;;;;;;3.53;2.67;;;;;;;;;;5094287;28;20040;-69
2022/06/08 09:13:12;;;;;;;6.32;2.35;;;;;;;;;;5094336;28;20047;-69
2022/06/08 09:15:38;;;;;;;;;;;;;;;;;;5095022;28;20039;-69
2022/06/08 09:18:05;;;;;;;3.88;2.05;;;;;;;;;;5094236;28;19980;-69
2022/06/08 09:20:35;;;;;;;4.13;2.55;;;;;;;;;;5093958;28;20032;-69
2022/06/08 09:23:22;;;;;;;5.53;2.35;;;;;;;;;;5094204;28;20031;-69
2022/06/08 09:26:01;;;;;;;3.88;2.00;;;;;;;;;;5097727;28;20032;-69
2022/06/08 09:28:28;;;;;;;3.83;2.08;;;;;;;;;;5098008;28;20054;-69
2022/06/08 09:30:54;;;;;;;3.47;1.90;;;;;;;;;;5098049;28;20060;-69
2022/06/08 09:33:37;;;;;;;3.30;1.90;;;;;;;;;;5097703;28;20093;-69
2022/06/08 09:36:09;;;;;;;5.45;2.00;;;;;;;;;;5097219;28;20039;-69
2022/06/08 09:38:40;;;;;;;6.80;2.22;;;;;;;;;;5097682;28;20044;-69
2022/06/08 09:41:06;;;;;;;6.00;2.40;;;;;;;;;;5097221;28;20486;-69
2022/06/08 09:43:50;;;;;;;7.65;1.90;;;;;;;;;;5097313;28;20074;-69
2022/06/08 09:51:25;;;;;;;5.85;1.90;;;;;;;;;;5097501;28;20628;-69
2022/06/08 09:52:20;;;;;;;2.10;1.58;;;;;;;;;;5096055;28;20039;-69
2022/06/08 09:54:49;;;;;;;2.38;1.65;;;;;;;;;;5095997;28;20036;-69
2022/06/08 09:57:38;;;;;;;3.08;1.48;;;;;;;;;;5102235;28;20116;-69
2022/06/08 10:00:17;;;;;;;3.63;1.30;;;;;;;;;;5114534;28;20133;-69
2022/06/08 10:02:51;;;;;;;1.80;1.27;;;;;;;;;;5095839;28;20036;-69
2022/06/08 10:05:23;;;;;;;2.08;1.42;;;;;;;;;;5096911;28;20068;-69
2022/06/08 10:08:08;;;;;;;2.45;1.30;;;;;;;;;;5096422;28;20051;-68
2022/06/08 10:10:39;;;;;;;5.18;1.60;;;;;;;;;;5096718;28;20089;-68
2022/06/08 10:13:16;;;;;;;6.43;2.60;;;;;;;;;;5095407;28;20047;-69
2022/06/08 10:15:47;;;;;;;2.58;1.35;;;;;;;;;;5097196;28;20063;-69
2022/06/08 10:18:22;;;;;;;2.38;1.42;;;;;;;;;;5096634;28;20498;-69
2022/06/08 10:20:55;;;;;;;2.60;1.38;;;;;;;;;;5096024;28;20047;-69
2022/06/08 10:23:33;;;;;;;4.40;1.70;;;;;;;;;;5096407;28;20058;-69
2022/06/08 10:26:02;;;;;;;1.92;1.30;;;;;;;;;;5096252;28;20123;-69
2022/06/08 10:28:33;;;;;;;1.80;1.33;;;;;;;;;;5096261;28;20131;-69
2022/06/08 10:31:02;;;;;;;2.60;1.55;;;;;;;;;;5096365;28;21229;-69
2022/06/08 10:33:49;;;;;;;1.50;1.20;;;;;;;;;;5095595;28;20062;-69
2022/06/08 10:36:15;;;;;;;2.25;1.40;;;;;;;;;;5095117;28;20046;-69
2022/06/08 10:38:42;;;;;;;3.85;1.63;;;;;;;;;;5096147;28;20039;-69
2022/06/08 10:44:25;;;;;;;3.75;2.25;;;;;;;;;;5095374;28;20522;-69
2022/06/08 10:46:51;;;;;;;6.32;2.10;;;;;;;;;;5093417;28;20110;-69
2022/06/08 10:49:29;;;;;;;3.33;1.80;;;;;;;;;;5104141;28;20128;-69
2022/06/08 10:52:14;;;;;;;2.70;1.90;;;;;;;;;;5116179;28;20042;-69
2022/06/08 10:54:54;;;;;;;2.75;2.00;;;;;;;;;;5115736;28;20122;-69
2022/06/08 10:57:38;;;;;;;2.90;1.80;;;;;;;;;;5116394;28;20497;-69
2022/06/08 11:00:19;;;;;;;2.00;1.80;;;;;;;;;;5115547;28;20496;-69
2022/06/08 11:03:01;;;;;;;3.67;1.80;;;;;;;;;;5116734;28;20104;-70
2022/06/08 11:05:35;;;;;;;3.50;2.30;;;;;;;;;;5103340;28;20047;-69
2022/06/08 11:08:01;;;;;;;2.95;1.90;;;;;;;;;;5091160;28;20062;-70
2022/06/08 11:11:16;;;;;;;3.35;1.85;;;;;;;;;;5095569;28;20040;-70
2022/06/08 11:13:37;;;;;;;3.15;2.10;;;;;;;;;;5094001;28;20040;-69
2022/06/08 11:16:08;;;;;;;2.63;2.00;;;;;;;;;;5096951;28;20395;-66
2022/06/08 11:18:40;;;;;;;2.80;1.90;;;;;;;;;;5096598;28;20040;-69
2022/06/08 11:21:09;;;;;;;3.00;1.55;;;;;;;;;;5095219;28;20177;-69
2022/06/08 11:23:59;;;;;;;2.08;1.80;;;;;;;;;;5095677;28;20490;-69
2022/06/08 11:26:45;;;;;;;3.80;2.00;;;;;;;;;;5093569;28;20058;-68
2022/06/08 11:29:22;;;;;;;1.73;1.42;;;;;;;;;;5095361;28;20044;-69
2022/06/08 11:31:53;;;;;;;2.05;1.67;;;;;;;;;;5095108;28;20556;-69
2022/06/08 11:34:19;;;;;;;4.63;2.20;;;;;;;;;;5094191;28;20036;-69
2022/06/08 11:36:52;;;;;;;5.38;1.98;;;;;;;;;;5094356;28;20036;-69
2022/06/08 11:39:31;;;;;;;4.07;1.85;;;;;;;;;;5094848;28;20032;-69
2022/06/08 11:41:59;;;;;;;5.47;2.10;;;;;;;;;;5094284;28;20052;-68
2022/06/08 11:44:26;;;;;;;3.80;1.95;;;;;;;;;;5094383;28;20040;-69
2022/06/08 11:47:01;;;;;;;2.33;1.70;;;;;;;;;;5094164;28;20048;-68
2022/06/08 11:49:28;;;;;;;2.55;2.00;;;;;;;;;;5094896;28;20050;-68
2022/06/08 11:51:54;;;;;;;3.35;2.10;;;;;;;;;;5094376;28;20040;-69
2022/06/08 11:54:31;;;;;;;3.28;1.90;;;;;;;;;;5094773;28;20034;-69
2022/06/08 11:57:04;;;;;;;3.67;2.30;;;;;;;;;;5093381;28;20418;-68
2022/06/08 11:59:35;;;;;;;4.88;2.53;;;;;;;;;;5100820;28;20097;-68
2022/06/08 12:02:01;;;;;;;;;;;;;;;;;;5086772;28;20047;-68
2022/06/08 12:04:30;;;;;;;2.63;2.10;;;;;;;;;;5098266;28;19911;-68
2022/06/08 12:06:57;;;;;;;3.72;1.65;;;;;;;;;;5113492;28;20438;-68
2022/06/08 12:09:32;;;;;;;4.13;2.10;;;;;;;;;;5105108;28;20042;-69
2022/06/08 12:12:15;;;;;;;3.88;1.98;;;;;;;;;;5114313;28;20043;-69
2022/06/08 12:14:42;;;;;;;3.03;1.52;;;;;;;;;;5114172;28;20039;-69
2022/06/08 12:17:24;;;;;;;2.42;1.55;;;;;;;;;;5114216;28;20067;-69
2022/06/08 12:19:55;;;;;;;3.15;1.38;;;;;;;;;;5109126;28;20043;-69
2022/06/08 12:22:25;;;;;;;2.63;1.50;;;;;;;;;;5101450;28;20040;-69
2022/06/08 12:25:05;;;;;;;2.75;1.50;;;;;;;;;;5094420;28;20114;-69
2022/06/08 12:27:39;;;;;;;1.50;1.15;;;;;;;;;;5094040;28;20048;-69
2022/06/08 12:30:20;;;;;;;1.52;1.17;;;;;;;;;;5094028;28;20052;-69
2022/06/08 12:32:54;;;;;;;1.10;1.00;;;;;;;;;;5094106;28;20093;-69
2022/06/08 12:35:23;;;;;;;1.42;0.85;;;;;;;;;;5093935;28;20043;-69
2022/06/08 12:37:50;;;;;;;2.40;0.77;;;;;;;;;;5093602;28;20070;-68
2022/06/08 12:40:16;;;;;;;0.50;0.50;;;;;;;;;;5093927;28;20036;-68
2022/06/08 12:43:06;;;;;;;0.70;0.70;;;;;;;;;;5090377;28;20047;-68
2022/06/08 12:45:33;;;;;;;0.65;0.57;;;;;;;;;;5082042;28;20047;-68
2022/06/08 12:48:18;;;;;;;0.70;0.70;;;;;;;;;;5093963;28;20040;-68
2022/06/08 12:50:44;;;;;;;1.25;0.73;;;;;;;;;;5093839;28;20089;-68
2022/06/08 12:53:10;;;;;;;1.40;0.70;;;;;;;;;;5093852;28;20047;-68
2022/06/08 12:55:39;;;;;;;0.85;0.75;;;;;;;;;;5094211;28;20071;-68
2022/06/08 12:58:06;;;;;;;2.67;1.00;;;;;;;;;;5094967;28;20036;-68
2022/06/08 13:00:35;;;;;;;2.40;1.05;;;;;;;;;;5097658;28;20123;-69
2022/06/08 13:03:02;;;;;;;0.90;0.90;;;;;;;;;;5095283;28;20118;-69
2022/06/08 13:05:31;;;;;;;1.02;1.00;;;;;;;;;;5096550;28;20173;-69
2022/06/08 13:07:58;;;;;;;1.23;0.88;;;;;;;;;;5097761;28;20040;-69
2022/06/08 13:10:28;;;;;;;0.95;0.82;;;;;;;;;;5097516;28;20120;-69
2022/06/08 13:12:58;;;;;;;0.93;0.80;;;;;;;;;;5097796;28;20059;-69
2022/06/08 13:15:28;;;;;;;1.35;0.80;;;;;;;;;;5097244;28;20110;-68
2022/06/08 13:17:54;;;;;;;0.75;0.68;;;;;;;;;;5097658;28;20054;-68
2022/06/08 13:20:22;;;;;;;1.55;1.00;;;;;;;;;;5095505;28;20101;-69
2022/06/08 13:22:49;;;;;;;2.83;1.00;;;;;;;;;;5095979;28;20060;-69
2022/06/08 13:25:16;;;;;;;3.70;1.20;;;;;;;;;;5096830;28;20101;-69
2022/06/08 13:27:43;;;;;;;1.23;1.02;;;;;;;;;;5096604;28;20040;-68
2022/06/08 13:30:16;;;;;;;1.00;0.88;;;;;;;;;;5097243;28;20096;-69
2022/06/08 13:32:42;;;;;;;1.30;1.00;;;;;;;;;;5096141;28;20040;-69
2022/06/08 13:35:09;;;;;;;2.20;0.85;;;;;;;;;;5098095;28;20046;-69
2022/06/08 13:37:37;;;;;;;1.50;1.23;;;;;;;;;;5109849;28;20427;-69
